sensor_id;sensor_type;location;lat;lon;timestamp;temperature;humidity
40756;DHT22;26461;45.630;9.418;2023-11-21T00:02:33;11.60;72.70
40756;DHT22;26461;45.630;9.418;2023-11-21T00:05:38;11.60;72.80
40756;DHT22;26461;45.630;9.418;2023-11-21T00:08:46;11.60;72.60
40756;DHT22;26461;45.630;9.418;2023-11-21T00:11:51;11.60;72.60
40756;DHT22;26461;45.630;9.418;2023-11-21T00:15:02;11.60;72.50
40756;DHT22;26461;45.630;9.418;2023-11-21T00:18:08;11.60;72.50
40756;DHT22;26461;45.630;9.418;2023-11-21T00:21:13;11.60;72.60
40756;DHT22;26461;45.630;9.418;2023-11-21T00:24:24;11.60;72.50
40756;DHT22;26461;45.630;9.418;2023-11-21T00:27:30;11.60;72.50
40756;DHT22;26461;45.630;9.418;2023-11-21T00:30:36;11.60;72.60
40756;DHT22;26461;45.630;9.418;2023-11-21T00:33:41;11.60;72.70
40756;DHT22;26461;45.630;9.418;2023-11-21T00:36:47;11.60;72.70
40756;DHT22;26461;45.630;9.418;2023-11-21T00:39:53;11.60;72.70
40756;DHT22;26461;45.630;9.418;2023-11-21T00:42:58;11.60;72.70
40756;DHT22;26461;45.630;9.418;2023-11-21T00:46:05;11.60;72.70
40756;DHT22;26461;45.630;9.418;2023-11-21T00:49:12;11.60;72.60
40756;DHT22;26461;45.630;9.418;2023-11-21T00:52:18;11.60;72.60
40756;DHT22;26461;45.630;9.418;2023-11-21T00:55:23;11.60;72.60
40756;DHT22;26461;45.630;9.418;2023-11-21T00:58:30;11.60;72.60
40756;DHT22;26461;45.630;9.418;2023-11-21T01:01:36;11.60;72.50
40756;DHT22;26461;45.630;9.418;2023-11-21T01:04:47;11.50;72.40
40756;DHT22;26461;45.630;9.418;2023-11-21T01:07:53;11.60;72.40
40756;DHT22;26461;45.630;9.418;2023-11-21T01:11:03;11.60;72.40
40756;DHT22;26461;45.630;9.418;2023-11-21T01:14:09;11.60;72.40
40756;DHT22;26461;45.630;9.418;2023-11-21T01:17:15;11.60;72.50
40756;DHT22;26461;45.630;9.418;2023-11-21T01:20:26;11.60;72.60
40756;DHT22;26461;45.630;9.418;2023-11-21T01:23:37;11.50;72.90
40756;DHT22;26461;45.630;9.418;2023-11-21T01:26:42;11.60;73.40
40756;DHT22;26461;45.630;9.418;2023-11-21T01:29:48;11.60;73.80
40756;DHT22;26461;45.630;9.418;2023-11-21T01:32:59;11.60;74.10
40756;DHT22;26461;45.630;9.418;2023-11-21T01:36:10;11.60;74.40
40756;DHT22;26461;45.630;9.418;2023-11-21T01:39:15;11.60;74.60
40756;DHT22;26461;45.630;9.418;2023-11-21T01:42:22;11.60;75.00
40756;DHT22;26461;45.630;9.418;2023-11-21T01:45:27;11.60;75.00
40756;DHT22;26461;45.630;9.418;2023-11-21T01:48:34;11.60;75.00
40756;DHT22;26461;45.630;9.418;2023-11-21T01:51:41;11.60;75.10
40756;DHT22;26461;45.630;9.418;2023-11-21T01:54:48;11.60;75.10
40756;DHT22;26461;45.630;9.418;2023-11-21T01:57:54;11.50;75.00
40756;DHT22;26461;45.630;9.418;2023-11-21T02:01:06;11.50;75.00
40756;DHT22;26461;45.630;9.418;2023-11-21T02:04:11;11.50;75.10
40756;DHT22;26461;45.630;9.418;2023-11-21T02:07:16;11.50;75.30
40756;DHT22;26461;45.630;9.418;2023-11-21T02:10:24;11.50;75.40
40756;DHT22;26461;45.630;9.418;2023-11-21T02:13:30;11.50;75.50
40756;DHT22;26461;45.630;9.418;2023-11-21T02:16:36;11.50;75.50
40756;DHT22;26461;45.630;9.418;2023-11-21T02:19:41;11.50;75.60
40756;DHT22;26461;45.630;9.418;2023-11-21T02:22:57;11.50;75.60
40756;DHT22;26461;45.630;9.418;2023-11-21T02:26:10;11.50;75.60
40756;DHT22;26461;45.630;9.418;2023-11-21T02:29:20;11.50;75.70
40756;DHT22;26461;45.630;9.418;2023-11-21T02:32:38;11.50;75.80
40756;DHT22;26461;45.630;9.418;2023-11-21T02:35:50;11.50;75.80
40756;DHT22;26461;45.630;9.418;2023-11-21T02:39:00;11.50;75.90
40756;DHT22;26461;45.630;9.418;2023-11-21T02:42:09;11.50;75.80
40756;DHT22;26461;45.630;9.418;2023-11-21T02:45:15;11.50;75.90
40756;DHT22;26461;45.630;9.418;2023-11-21T02:48:30;11.50;75.90
40756;DHT22;26461;45.630;9.418;2023-11-21T02:51:36;11.50;75.90
40756;DHT22;26461;45.630;9.418;2023-11-21T02:54:48;11.50;75.90
40756;DHT22;26461;45.630;9.418;2023-11-21T02:57:53;11.40;76.00
40756;DHT22;26461;45.630;9.418;2023-11-21T03:01:04;11.40;76.00
40756;DHT22;26461;45.630;9.418;2023-11-21T03:04:15;11.40;75.90
40756;DHT22;26461;45.630;9.418;2023-11-21T03:07:23;11.40;75.80
40756;DHT22;26461;45.630;9.418;2023-11-21T03:10:29;11.50;75.80
40756;DHT22;26461;45.630;9.418;2023-11-21T03:13:34;11.50;75.80
40756;DHT22;26461;45.630;9.418;2023-11-21T03:16:44;11.50;75.70
40756;DHT22;26461;45.630;9.418;2023-11-21T03:19:55;11.50;75.70
40756;DHT22;26461;45.630;9.418;2023-11-21T03:23:02;11.50;75.70
40756;DHT22;26461;45.630;9.418;2023-11-21T03:26:12;11.50;75.70
40756;DHT22;26461;45.630;9.418;2023-11-21T03:29:23;11.50;75.80
40756;DHT22;26461;45.630;9.418;2023-11-21T03:32:28;11.50;75.90
40756;DHT22;26461;45.630;9.418;2023-11-21T03:35:33;11.50;75.90
40756;DHT22;26461;45.630;9.418;2023-11-21T03:38:38;11.50;76.10
40756;DHT22;26461;45.630;9.418;2023-11-21T03:41:44;11.50;76.20
40756;DHT22;26461;45.630;9.418;2023-11-21T03:44:49;11.50;76.10
40756;DHT22;26461;45.630;9.418;2023-11-21T03:47:55;11.50;76.20
40756;DHT22;26461;45.630;9.418;2023-11-21T03:51:06;11.50;76.30
40756;DHT22;26461;45.630;9.418;2023-11-21T03:54:12;11.50;76.30
40756;DHT22;26461;45.630;9.418;2023-11-21T03:57:24;11.50;76.60
40756;DHT22;26461;45.630;9.418;2023-11-21T04:00:35;11.50;76.70
40756;DHT22;26461;45.630;9.418;2023-11-21T04:03:40;11.50;76.70
40756;DHT22;26461;45.630;9.418;2023-11-21T04:06:45;11.50;76.70
40756;DHT22;26461;45.630;9.418;2023-11-21T04:09:50;11.50;76.60
40756;DHT22;26461;45.630;9.418;2023-11-21T04:12:56;11.50;76.60
40756;DHT22;26461;45.630;9.418;2023-11-21T04:16:01;11.50;76.50
40756;DHT22;26461;45.630;9.418;2023-11-21T04:19:13;11.50;76.80
40756;DHT22;26461;45.630;9.418;2023-11-21T04:22:27;11.50;77.00
40756;DHT22;26461;45.630;9.418;2023-11-21T04:25:37;11.50;77.20
40756;DHT22;26461;45.630;9.418;2023-11-21T04:28:42;11.50;77.10
40756;DHT22;26461;45.630;9.418;2023-11-21T04:31:48;11.50;77.10
40756;DHT22;26461;45.630;9.418;2023-11-21T04:34:53;11.40;77.00
40756;DHT22;26461;45.630;9.418;2023-11-21T04:38:03;11.50;77.10
40756;DHT22;26461;45.630;9.418;2023-11-21T04:41:09;11.50;77.10
40756;DHT22;26461;45.630;9.418;2023-11-21T04:44:14;11.50;77.10
40756;DHT22;26461;45.630;9.418;2023-11-21T04:47:26;11.50;77.10
40756;DHT22;26461;45.630;9.418;2023-11-21T04:50:31;11.50;77.20
40756;DHT22;26461;45.630;9.418;2023-11-21T04:53:37;11.50;78.00
40756;DHT22;26461;45.630;9.418;2023-11-21T04:56:42;11.50;77.30
40756;DHT22;26461;45.630;9.418;2023-11-21T04:59:52;11.50;77.30
40756;DHT22;26461;45.630;9.418;2023-11-21T05:03:03;11.50;77.20
40756;DHT22;26461;45.630;9.418;2023-11-21T05:06:11;11.50;77.20
40756;DHT22;26461;45.630;9.418;2023-11-21T05:09:17;11.40;77.20
40756;DHT22;26461;45.630;9.418;2023-11-21T05:12:27;11.40;77.20
40756;DHT22;26461;45.630;9.418;2023-11-21T05:15:32;11.40;78.00
40756;DHT22;26461;45.630;9.418;2023-11-21T05:18:38;11.40;77.40
40756;DHT22;26461;45.630;9.418;2023-11-21T05:21:50;11.40;77.40
40756;DHT22;26461;45.630;9.418;2023-11-21T05:25:01;11.40;77.70
40756;DHT22;26461;45.630;9.418;2023-11-21T05:28:06;11.40;77.80
40756;DHT22;26461;45.630;9.418;2023-11-21T05:31:11;11.40;77.70
40756;DHT22;26461;45.630;9.418;2023-11-21T05:34:16;11.40;77.70
40756;DHT22;26461;45.630;9.418;2023-11-21T05:37:22;11.30;77.80
40756;DHT22;26461;45.630;9.418;2023-11-21T05:40:28;11.30;77.80
40756;DHT22;26461;45.630;9.418;2023-11-21T05:43:34;11.30;77.70
40756;DHT22;26461;45.630;9.418;2023-11-21T05:46:40;11.30;77.70
40756;DHT22;26461;45.630;9.418;2023-11-21T05:49:47;11.30;77.60
40756;DHT22;26461;45.630;9.418;2023-11-21T05:52:56;11.30;77.70
40756;DHT22;26461;45.630;9.418;2023-11-21T05:56:02;11.30;77.60
40756;DHT22;26461;45.630;9.418;2023-11-21T05:59:09;11.30;77.50
40756;DHT22;26461;45.630;9.418;2023-11-21T06:02:15;11.20;77.60
40756;DHT22;26461;45.630;9.418;2023-11-21T06:05:26;11.20;77.70
40756;DHT22;26461;45.630;9.418;2023-11-21T06:08:31;11.20;77.90
40756;DHT22;26461;45.630;9.418;2023-11-21T06:11:41;11.20;78.00
40756;DHT22;26461;45.630;9.418;2023-11-21T06:14:52;11.10;78.10
40756;DHT22;26461;45.630;9.418;2023-11-21T06:17:57;11.10;78.30
40756;DHT22;26461;45.630;9.418;2023-11-21T06:21:12;11.10;78.20
40756;DHT22;26461;45.630;9.418;2023-11-21T06:24:22;11.10;78.20
40756;DHT22;26461;45.630;9.418;2023-11-21T06:27:28;11.10;78.20
40756;DHT22;26461;45.630;9.418;2023-11-21T06:30:34;11.00;78.10
40756;DHT22;26461;45.630;9.418;2023-11-21T06:33:39;11.00;78.10
40756;DHT22;26461;45.630;9.418;2023-11-21T06:36:44;11.00;78.10
40756;DHT22;26461;45.630;9.418;2023-11-21T06:39:50;11.00;78.10
40756;DHT22;26461;45.630;9.418;2023-11-21T06:42:57;11.00;78.90
40756;DHT22;26461;45.630;9.418;2023-11-21T06:46:08;11.00;78.10
40756;DHT22;26461;45.630;9.418;2023-11-21T06:49:21;11.00;78.20
40756;DHT22;26461;45.630;9.418;2023-11-21T06:52:27;11.00;78.20
40756;DHT22;26461;45.630;9.418;2023-11-21T06:55:37;11.00;78.30
40756;DHT22;26461;45.630;9.418;2023-11-21T06:58:47;10.90;78.30
40756;DHT22;26461;45.630;9.418;2023-11-21T07:02:01;10.90;78.50
40756;DHT22;26461;45.630;9.418;2023-11-21T07:05:07;10.90;78.60
40756;DHT22;26461;45.630;9.418;2023-11-21T07:08:12;10.90;78.70
40756;DHT22;26461;45.630;9.418;2023-11-21T07:11:18;10.90;78.80
40756;DHT22;26461;45.630;9.418;2023-11-21T07:14:23;10.80;78.80
40756;DHT22;26461;45.630;9.418;2023-11-21T07:17:29;10.80;78.90
40756;DHT22;26461;45.630;9.418;2023-11-21T07:20:34;10.80;79.00
40756;DHT22;26461;45.630;9.418;2023-11-21T07:23:39;10.80;79.00
40756;DHT22;26461;45.630;9.418;2023-11-21T07:26:44;10.80;79.10
40756;DHT22;26461;45.630;9.418;2023-11-21T07:29:50;10.80;79.20
40756;DHT22;26461;45.630;9.418;2023-11-21T07:33:00;10.80;79.10
40756;DHT22;26461;45.630;9.418;2023-11-21T07:36:11;10.80;79.10
40756;DHT22;26461;45.630;9.418;2023-11-21T07:39:16;10.80;79.10
40756;DHT22;26461;45.630;9.418;2023-11-21T07:42:21;10.80;79.20
40756;DHT22;26461;45.630;9.418;2023-11-21T07:45:31;10.80;79.20
40756;DHT22;26461;45.630;9.418;2023-11-21T07:48:36;10.90;79.30
40756;DHT22;26461;45.630;9.418;2023-11-21T07:51:42;10.80;79.40
40756;DHT22;26461;45.630;9.418;2023-11-21T07:54:49;10.80;79.50
40756;DHT22;26461;45.630;9.418;2023-11-21T07:57:54;10.80;79.50
40756;DHT22;26461;45.630;9.418;2023-11-21T08:01:00;10.80;79.60
40756;DHT22;26461;45.630;9.418;2023-11-21T08:04:05;10.80;79.60
40756;DHT22;26461;45.630;9.418;2023-11-21T08:07:11;10.80;79.60
40756;DHT22;26461;45.630;9.418;2023-11-21T08:10:22;10.80;79.60
40756;DHT22;26461;45.630;9.418;2023-11-21T08:13:28;10.80;79.60
40756;DHT22;26461;45.630;9.418;2023-11-21T08:16:40;10.80;79.50
40756;DHT22;26461;45.630;9.418;2023-11-21T08:19:46;10.80;79.50
40756;DHT22;26461;45.630;9.418;2023-11-21T08:22:59;10.80;79.40
40756;DHT22;26461;45.630;9.418;2023-11-21T08:26:05;10.80;79.50
40756;DHT22;26461;45.630;9.418;2023-11-21T08:29:10;10.80;79.40
40756;DHT22;26461;45.630;9.418;2023-11-21T08:32:22;10.80;79.40
40756;DHT22;26461;45.630;9.418;2023-11-21T08:35:27;10.80;79.20
40756;DHT22;26461;45.630;9.418;2023-11-21T08:38:37;10.80;79.20
40756;DHT22;26461;45.630;9.418;2023-11-21T08:41:48;10.90;79.30
40756;DHT22;26461;45.630;9.418;2023-11-21T08:44:58;10.90;79.50
40756;DHT22;26461;45.630;9.418;2023-11-21T08:48:09;10.90;79.40
40756;DHT22;26461;45.630;9.418;2023-11-21T08:51:16;11.00;79.50
40756;DHT22;26461;45.630;9.418;2023-11-21T08:54:22;11.00;79.50
40756;DHT22;26461;45.630;9.418;2023-11-21T08:57:27;11.00;79.50
40756;DHT22;26461;45.630;9.418;2023-11-21T09:00:32;11.10;79.60
40756;DHT22;26461;45.630;9.418;2023-11-21T09:03:38;11.10;79.70
40756;DHT22;26461;45.630;9.418;2023-11-21T09:06:43;11.10;79.40
40756;DHT22;26461;45.630;9.418;2023-11-21T09:09:49;11.10;79.10
40756;DHT22;26461;45.630;9.418;2023-11-21T09:13:01;11.10;79.10
40756;DHT22;26461;45.630;9.418;2023-11-21T09:16:07;11.10;79.10
40756;DHT22;26461;45.630;9.418;2023-11-21T09:19:12;11.10;79.10
40756;DHT22;26461;45.630;9.418;2023-11-21T09:22:19;11.10;79.10
40756;DHT22;26461;45.630;9.418;2023-11-21T09:25:25;11.20;79.10
40756;DHT22;26461;45.630;9.418;2023-11-21T09:28:30;11.20;79.00
40756;DHT22;26461;45.630;9.418;2023-11-21T09:31:41;11.20;78.90
40756;DHT22;26461;45.630;9.418;2023-11-21T09:34:49;11.20;78.70
40756;DHT22;26461;45.630;9.418;2023-11-21T09:38:00;11.20;78.70
40756;DHT22;26461;45.630;9.418;2023-11-21T09:41:40;11.30;78.80
40756;DHT22;26461;45.630;9.418;2023-11-21T09:48:09;11.30;78.90
40756;DHT22;26461;45.630;9.418;2023-11-21T09:51:24;11.30;78.80
40756;DHT22;26461;45.630;9.418;2023-11-21T09:54:32;11.40;78.80
40756;DHT22;26461;45.630;9.418;2023-11-21T09:57:43;11.40;78.70
40756;DHT22;26461;45.630;9.418;2023-11-21T10:00:55;11.40;78.20
40756;DHT22;26461;45.630;9.418;2023-11-21T10:04:01;11.40;78.00
40756;DHT22;26461;45.630;9.418;2023-11-21T10:07:07;11.40;78.00
40756;DHT22;26461;45.630;9.418;2023-11-21T10:10:18;11.50;78.10
40756;DHT22;26461;45.630;9.418;2023-11-21T10:13:24;11.50;77.90
40756;DHT22;26461;45.630;9.418;2023-11-21T10:16:38;11.50;77.50
40756;DHT22;26461;45.630;9.418;2023-11-21T10:19:50;11.50;77.50
40756;DHT22;26461;45.630;9.418;2023-11-21T10:22:55;11.50;77.60
40756;DHT22;26461;45.630;9.418;2023-11-21T10:26:12;11.50;77.80
40756;DHT22;26461;45.630;9.418;2023-11-21T10:29:29;11.50;77.80
40756;DHT22;26461;45.630;9.418;2023-11-21T10:32:35;11.50;77.70
40756;DHT22;26461;45.630;9.418;2023-11-21T10:35:46;11.60;77.70
40756;DHT22;26461;45.630;9.418;2023-11-21T10:38:54;11.60;77.50
40756;DHT22;26461;45.630;9.418;2023-11-21T10:41:59;11.60;77.40
40756;DHT22;26461;45.630;9.418;2023-11-21T10:45:06;11.60;77.40
40756;DHT22;26461;45.630;9.418;2023-11-21T10:48:23;11.70;77.30
40756;DHT22;26461;45.630;9.418;2023-11-21T10:51:33;11.70;77.00
40756;DHT22;26461;45.630;9.418;2023-11-21T10:54:39;11.70;76.70
40756;DHT22;26461;45.630;9.418;2023-11-21T10:57:48;11.70;76.50
40756;DHT22;26461;45.630;9.418;2023-11-21T11:00:54;11.70;76.40
40756;DHT22;26461;45.630;9.418;2023-11-21T11:04:06;11.70;76.40
40756;DHT22;26461;45.630;9.418;2023-11-21T11:07:21;11.80;76.50
40756;DHT22;26461;45.630;9.418;2023-11-21T11:10:31;11.80;76.30
40756;DHT22;26461;45.630;9.418;2023-11-21T11:13:37;11.80;76.10
40756;DHT22;26461;45.630;9.418;2023-11-21T11:16:49;11.80;75.90
40756;DHT22;26461;45.630;9.418;2023-11-21T11:19:59;11.80;75.80
40756;DHT22;26461;45.630;9.418;2023-11-21T11:26:46;12.00;76.00
40756;DHT22;26461;45.630;9.418;2023-11-21T11:33:43;12.10;75.30
40756;DHT22;26461;45.630;9.418;2023-11-21T11:37:16;12.20;75.20
40756;DHT22;26461;45.630;9.418;2023-11-21T11:40:22;12.20;75.20
40756;DHT22;26461;45.630;9.418;2023-11-21T11:43:28;12.30;74.90
40756;DHT22;26461;45.630;9.418;2023-11-21T11:46:43;12.30;74.60
40756;DHT22;26461;45.630;9.418;2023-11-21T11:49:57;12.40;74.60
40756;DHT22;26461;45.630;9.418;2023-11-21T11:53:14;12.40;74.20
40756;DHT22;26461;45.630;9.418;2023-11-21T12:00:07;12.50;73.50
40756;DHT22;26461;45.630;9.418;2023-11-21T12:03:20;12.60;73.30
40756;DHT22;26461;45.630;9.418;2023-11-21T12:06:35;12.70;73.00
40756;DHT22;26461;45.630;9.418;2023-11-21T12:09:46;12.80;72.70
40756;DHT22;26461;45.630;9.418;2023-11-21T12:12:58;12.80;72.50
40756;DHT22;26461;45.630;9.418;2023-11-21T12:16:08;12.90;72.40
40756;DHT22;26461;45.630;9.418;2023-11-21T12:19:15;13.00;72.40
40756;DHT22;26461;45.630;9.418;2023-11-21T12:22:20;13.10;72.40
40756;DHT22;26461;45.630;9.418;2023-11-21T12:25:31;13.10;72.20
40756;DHT22;26461;45.630;9.418;2023-11-21T12:28:38;13.20;71.60
40756;DHT22;26461;45.630;9.418;2023-11-21T12:31:43;13.30;71.00
40756;DHT22;26461;45.630;9.418;2023-11-21T12:34:51;13.40;70.90
40756;DHT22;26461;45.630;9.418;2023-11-21T12:37:56;13.50;70.50
40756;DHT22;26461;45.630;9.418;2023-11-21T12:41:05;13.60;70.00
40756;DHT22;26461;45.630;9.418;2023-11-21T12:44:12;13.70;69.90
40756;DHT22;26461;45.630;9.418;2023-11-21T12:47:20;13.80;69.90
40756;DHT22;26461;45.630;9.418;2023-11-21T12:50:28;13.90;69.80
40756;DHT22;26461;45.630;9.418;2023-11-21T12:53:34;14.00;69.40
40756;DHT22;26461;45.630;9.418;2023-11-21T12:56:45;14.10;69.20
40756;DHT22;26461;45.630;9.418;2023-11-21T12:59:52;14.20;69.00
40756;DHT22;26461;45.630;9.418;2023-11-21T13:02:59;14.30;68.50
40756;DHT22;26461;45.630;9.418;2023-11-21T13:06:10;14.30;68.00
40756;DHT22;26461;45.630;9.418;2023-11-21T13:09:21;14.40;67.90
40756;DHT22;26461;45.630;9.418;2023-11-21T13:12:29;14.50;67.80
40756;DHT22;26461;45.630;9.418;2023-11-21T13:15:48;14.60;67.40
40756;DHT22;26461;45.630;9.418;2023-11-21T13:18:53;14.70;67.10
40756;DHT22;26461;45.630;9.418;2023-11-21T13:21:59;14.80;66.80
40756;DHT22;26461;45.630;9.418;2023-11-21T13:25:07;14.80;66.50
40756;DHT22;26461;45.630;9.418;2023-11-21T13:28:18;14.90;66.10
40756;DHT22;26461;45.630;9.418;2023-11-21T13:31:26;15.00;65.90
40756;DHT22;26461;45.630;9.418;2023-11-21T13:34:35;15.10;65.50
40756;DHT22;26461;45.630;9.418;2023-11-21T13:37:42;15.10;65.30
40756;DHT22;26461;45.630;9.418;2023-11-21T13:40:51;15.20;64.90
40756;DHT22;26461;45.630;9.418;2023-11-21T13:43:59;15.30;64.60
40756;DHT22;26461;45.630;9.418;2023-11-21T13:47:21;15.30;64.30
40756;DHT22;26461;45.630;9.418;2023-11-21T13:50:30;15.40;64.20
40756;DHT22;26461;45.630;9.418;2023-11-21T13:53:47;15.40;63.70
40756;DHT22;26461;45.630;9.418;2023-11-21T13:57:00;15.50;63.40
40756;DHT22;26461;45.630;9.418;2023-11-21T14:00:12;15.60;63.30
40756;DHT22;26461;45.630;9.418;2023-11-21T14:03:37;15.60;63.00
40756;DHT22;26461;45.630;9.418;2023-11-21T14:06:57;15.70;62.80
40756;DHT22;26461;45.630;9.418;2023-11-21T14:10:10;15.70;62.90
40756;DHT22;26461;45.630;9.418;2023-11-21T14:13:19;15.80;62.50
40756;DHT22;26461;45.630;9.418;2023-11-21T14:16:28;15.80;62.30
40756;DHT22;26461;45.630;9.418;2023-11-21T14:19:39;15.80;61.90
40756;DHT22;26461;45.630;9.418;2023-11-21T14:22:49;15.90;61.80
40756;DHT22;26461;45.630;9.418;2023-11-21T14:25:59;15.90;61.60
40756;DHT22;26461;45.630;9.418;2023-11-21T14:29:11;15.90;60.20
40756;DHT22;26461;45.630;9.418;2023-11-21T14:32:26;15.90;60.00
40756;DHT22;26461;45.630;9.418;2023-11-21T14:35:32;15.90;59.10
40756;DHT22;26461;45.630;9.418;2023-11-21T14:38:42;15.90;58.70
40756;DHT22;26461;45.630;9.418;2023-11-21T14:41:49;16.00;58.90
40756;DHT22;26461;45.630;9.418;2023-11-21T14:45:00;16.00;58.80
40756;DHT22;26461;45.630;9.418;2023-11-21T14:48:09;16.00;58.80
40756;DHT22;26461;45.630;9.418;2023-11-21T14:51:39;16.00;58.70
40756;DHT22;26461;45.630;9.418;2023-11-21T14:55:09;16.00;58.70
40756;DHT22;26461;45.630;9.418;2023-11-21T14:58:31;16.00;58.80
40756;DHT22;26461;45.630;9.418;2023-11-21T15:01:36;16.00;58.60
40756;DHT22;26461;45.630;9.418;2023-11-21T15:04:51;16.00;58.40
40756;DHT22;26461;45.630;9.418;2023-11-21T15:08:03;16.00;58.20
40756;DHT22;26461;45.630;9.418;2023-11-21T15:11:43;16.00;58.20
40756;DHT22;26461;45.630;9.418;2023-11-21T15:14:54;16.00;58.20
40756;DHT22;26461;45.630;9.418;2023-11-21T15:18:01;15.90;57.90
40756;DHT22;26461;45.630;9.418;2023-11-21T15:21:11;15.90;57.90
40756;DHT22;26461;45.630;9.418;2023-11-21T15:24:17;15.90;58.00
40756;DHT22;26461;45.630;9.418;2023-11-21T15:27:23;15.80;57.70
40756;DHT22;26461;45.630;9.418;2023-11-21T15:30:35;15.80;57.70
40756;DHT22;26461;45.630;9.418;2023-11-21T15:33:40;15.70;57.60
40756;DHT22;26461;45.630;9.418;2023-11-21T15:36:50;15.60;57.70
40756;DHT22;26461;45.630;9.418;2023-11-21T15:39:58;15.60;57.90
40756;DHT22;26461;45.630;9.418;2023-11-21T15:43:09;15.50;58.00
40756;DHT22;26461;45.630;9.418;2023-11-21T15:46:16;15.40;58.20
40756;DHT22;26461;45.630;9.418;2023-11-21T15:49:22;15.30;58.30
40756;DHT22;26461;45.630;9.418;2023-11-21T15:52:32;15.20;58.50
40756;DHT22;26461;45.630;9.418;2023-11-21T15:55:38;15.20;58.70
40756;DHT22;26461;45.630;9.418;2023-11-21T15:58:52;15.10;58.70
40756;DHT22;26461;45.630;9.418;2023-11-21T16:01:59;15.00;58.80
40756;DHT22;26461;45.630;9.418;2023-11-21T16:05:09;14.90;58.90
40756;DHT22;26461;45.630;9.418;2023-11-21T16:08:19;14.90;59.10
40756;DHT22;26461;45.630;9.418;2023-11-21T16:11:29;14.80;59.20
40756;DHT22;26461;45.630;9.418;2023-11-21T16:14:40;14.70;59.30
40756;DHT22;26461;45.630;9.418;2023-11-21T16:17:50;14.60;59.50
40756;DHT22;26461;45.630;9.418;2023-11-21T16:20:55;14.50;59.70
40756;DHT22;26461;45.630;9.418;2023-11-21T16:24:00;14.50;59.70
40756;DHT22;26461;45.630;9.418;2023-11-21T16:27:11;14.40;59.80
40756;DHT22;26461;45.630;9.418;2023-11-21T16:30:16;14.30;59.80
40756;DHT22;26461;45.630;9.418;2023-11-21T16:33:28;14.20;59.90
40756;DHT22;26461;45.630;9.418;2023-11-21T16:36:40;14.20;60.00
40756;DHT22;26461;45.630;9.418;2023-11-21T16:39:45;14.20;60.40
40756;DHT22;26461;45.630;9.418;2023-11-21T16:42:53;14.10;60.60
40756;DHT22;26461;45.630;9.418;2023-11-21T16:46:04;14.10;60.60
40756;DHT22;26461;45.630;9.418;2023-11-21T16:49:14;14.00;61.50
40756;DHT22;26461;45.630;9.418;2023-11-21T16:52:25;14.00;61.20
40756;DHT22;26461;45.630;9.418;2023-11-21T16:55:35;13.90;61.20
40756;DHT22;26461;45.630;9.418;2023-11-21T16:58:41;13.90;61.30
40756;DHT22;26461;45.630;9.418;2023-11-21T17:01:48;13.90;61.50
40756;DHT22;26461;45.630;9.418;2023-11-21T17:04:59;13.80;61.50
40756;DHT22;26461;45.630;9.418;2023-11-21T17:08:05;13.80;61.70
40756;DHT22;26461;45.630;9.418;2023-11-21T17:11:15;13.70;61.80
40756;DHT22;26461;45.630;9.418;2023-11-21T17:14:24;13.70;61.90
40756;DHT22;26461;45.630;9.418;2023-11-21T17:17:34;13.70;62.00
40756;DHT22;26461;45.630;9.418;2023-11-21T17:20:40;13.70;62.10
40756;DHT22;26461;45.630;9.418;2023-11-21T17:23:46;13.60;62.30
40756;DHT22;26461;45.630;9.418;2023-11-21T17:26:52;13.60;62.50
40756;DHT22;26461;45.630;9.418;2023-11-21T17:29:58;13.60;62.50
40756;DHT22;26461;45.630;9.418;2023-11-21T17:33:08;13.60;62.60
40756;DHT22;26461;45.630;9.418;2023-11-21T17:36:19;13.50;62.50
40756;DHT22;26461;45.630;9.418;2023-11-21T17:39:29;13.50;62.70
40756;DHT22;26461;45.630;9.418;2023-11-21T17:42:40;13.40;62.90
40756;DHT22;26461;45.630;9.418;2023-11-21T17:45:45;13.40;63.10
40756;DHT22;26461;45.630;9.418;2023-11-21T17:48:52;13.40;63.30
40756;DHT22;26461;45.630;9.418;2023-11-21T17:52:02;13.30;63.30
40756;DHT22;26461;45.630;9.418;2023-11-21T17:55:08;13.20;63.30
40756;DHT22;26461;45.630;9.418;2023-11-21T17:58:18;13.20;63.50
40756;DHT22;26461;45.630;9.418;2023-11-21T18:01:23;13.20;63.90
40756;DHT22;26461;45.630;9.418;2023-11-21T18:04:35;13.10;64.00
40756;DHT22;26461;45.630;9.418;2023-11-21T18:07:41;13.00;64.20
40756;DHT22;26461;45.630;9.418;2023-11-21T18:10:46;13.00;64.30
40756;DHT22;26461;45.630;9.418;2023-11-21T18:13:52;13.00;64.40
40756;DHT22;26461;45.630;9.418;2023-11-21T18:16:57;13.00;64.50
40756;DHT22;26461;45.630;9.418;2023-11-21T18:20:03;12.90;64.50
40756;DHT22;26461;45.630;9.418;2023-11-21T18:23:08;12.90;64.50
40756;DHT22;26461;45.630;9.418;2023-11-21T18:26:17;12.90;64.70
40756;DHT22;26461;45.630;9.418;2023-11-21T18:29:28;12.80;64.70
40756;DHT22;26461;45.630;9.418;2023-11-21T18:32:34;12.80;64.90
40756;DHT22;26461;45.630;9.418;2023-11-21T18:35:39;12.70;65.10
40756;DHT22;26461;45.630;9.418;2023-11-21T18:38:45;12.70;65.10
40756;DHT22;26461;45.630;9.418;2023-11-21T18:41:51;12.60;65.20
40756;DHT22;26461;45.630;9.418;2023-11-21T18:44:57;12.60;65.20
40756;DHT22;26461;45.630;9.418;2023-11-21T18:48:08;12.60;65.40
40756;DHT22;26461;45.630;9.418;2023-11-21T18:51:16;12.50;65.60
40756;DHT22;26461;45.630;9.418;2023-11-21T18:54:21;12.50;65.80
40756;DHT22;26461;45.630;9.418;2023-11-21T18:57:27;12.50;66.00
40756;DHT22;26461;45.630;9.418;2023-11-21T19:00:33;12.40;66.10
40756;DHT22;26461;45.630;9.418;2023-11-21T19:03:41;12.40;66.30
40756;DHT22;26461;45.630;9.418;2023-11-21T19:06:47;12.40;66.30
40756;DHT22;26461;45.630;9.418;2023-11-21T19:09:58;12.30;66.40
40756;DHT22;26461;45.630;9.418;2023-11-21T19:13:04;12.30;66.60
40756;DHT22;26461;45.630;9.418;2023-11-21T19:16:15;12.30;66.70
40756;DHT22;26461;45.630;9.418;2023-11-21T19:19:20;12.20;66.60
40756;DHT22;26461;45.630;9.418;2023-11-21T19:22:31;12.20;66.60
40756;DHT22;26461;45.630;9.418;2023-11-21T19:25:38;12.20;66.60
40756;DHT22;26461;45.630;9.418;2023-11-21T19:28:48;12.10;66.70
40756;DHT22;26461;45.630;9.418;2023-11-21T19:31:59;12.10;66.90
40756;DHT22;26461;45.630;9.418;2023-11-21T19:35:11;12.00;67.10
40756;DHT22;26461;45.630;9.418;2023-11-21T19:38:16;12.00;67.10
40756;DHT22;26461;45.630;9.418;2023-11-21T19:41:26;12.00;67.20
40756;DHT22;26461;45.630;9.418;2023-11-21T19:44:32;12.00;67.10
40756;DHT22;26461;45.630;9.418;2023-11-21T19:47:46;12.00;67.20
40756;DHT22;26461;45.630;9.418;2023-11-21T19:50:51;11.90;67.30
40756;DHT22;26461;45.630;9.418;2023-11-21T19:53:57;11.90;67.40
40756;DHT22;26461;45.630;9.418;2023-11-21T19:57:03;11.80;67.40
40756;DHT22;26461;45.630;9.418;2023-11-21T20:00:10;11.80;67.50
40756;DHT22;26461;45.630;9.418;2023-11-21T20:03:24;11.80;67.60
40756;DHT22;26461;45.630;9.418;2023-11-21T20:06:30;11.70;67.80